createdAt,value
2024-03-24T00:00:34.077Z,79.47
2024-03-24T00:01:34.217Z,79.90
2024-03-24T00:02:34.408Z,77.82
2024-03-24T00:03:34.585Z,78.12
2024-03-24T00:04:34.790Z,79.87
2024-03-24T00:05:34.965Z,83.71
2024-03-24T00:06:35.115Z,92.04
2024-03-24T00:07:35.272Z,93.56
2024-03-24T00:08:35.427Z,91.62
2024-03-24T00:09:35.598Z,89.54
2024-03-24T00:10:35.792Z,89.92
2024-03-24T00:11:35.971Z,94.66
2024-03-24T00:12:36.193Z,96.71
2024-03-24T00:13:36.349Z,94.22
2024-03-24T00:14:36.479Z,96.27
2024-03-24T00:15:36.627Z,95.74
2024-03-24T00:16:36.805Z,95.86
2024-03-24T00:17:37.041Z,96.56
2024-03-24T00:18:37.143Z,99.98
2024-03-24T00:19:37.299Z,100.81
2024-03-24T00:20:37.477Z,103.42
2024-03-24T00:21:37.634Z,104.72
2024-03-24T00:22:37.796Z,103.29
2024-03-24T00:23:37.932Z,105.50
2024-03-24T00:24:38.118Z,105.27
2024-03-24T00:25:38.325Z,101.82
2024-03-24T00:26:38.521Z,101.14
2024-03-24T00:27:38.770Z,99.64
2024-03-24T00:28:38.913Z,101.33
2024-03-24T00:29:39.099Z,101.51
2024-03-24T00:30:39.285Z,101.42
2024-03-24T00:31:39.444Z,102.49
2024-03-24T00:32:39.631Z,104.14
2024-03-24T00:33:39.821Z,104.32
2024-03-24T00:34:39.999Z,104.65
2024-03-24T00:35:40.186Z,102.02
2024-03-24T00:36:40.338Z,98.87
2024-03-24T00:37:40.558Z,96.82
2024-03-24T00:38:40.715Z,91.41
2024-03-24T00:39:43.361Z,89.38
2024-03-24T00:40:41.036Z,89.40
2024-03-24T00:41:41.209Z,89.39
2024-03-24T00:42:41.357Z,89.83
2024-03-24T00:43:41.471Z,93.17
2024-03-24T00:44:42.687Z,98.70
2024-03-24T00:45:41.751Z,104.38
2024-03-24T00:46:41.899Z,104.84
2024-03-24T00:47:42.058Z,103.17
2024-03-24T00:48:42.169Z,99.58
2024-03-24T00:49:42.320Z,97.15
2024-03-24T00:50:42.468Z,86.00
2024-03-24T00:51:42.598Z,83.52
2024-03-24T00:52:42.761Z,82.58
2024-03-24T00:53:42.877Z,82.58
2024-03-24T00:54:43.027Z,81.99
2024-03-24T00:55:43.187Z,80.60
2024-03-24T00:56:43.354Z,78.36
2024-03-24T00:57:43.457Z,79.76
2024-03-24T00:58:43.604Z,76.49
2024-03-24T00:59:43.767Z,77.15
2024-03-24T01:00:43.889Z,78.14
2024-03-24T01:01:44.041Z,79.30
2024-03-24T01:02:44.172Z,82.31
2024-03-24T01:03:44.315Z,85.46
2024-03-24T01:04:44.468Z,85.49
2024-03-24T01:05:44.633Z,86.20
2024-03-24T01:06:44.776Z,88.91
2024-03-24T01:07:44.963Z,89.37
2024-03-24T01:08:45.097Z,90.89
2024-03-24T01:09:45.314Z,95.35
2024-03-24T01:10:45.491Z,96.26
2024-03-24T01:11:45.707Z,98.69
2024-03-24T01:12:45.917Z,99.31
2024-03-24T01:13:46.126Z,100.85
2024-03-24T01:14:46.346Z,103.03
2024-03-24T01:15:46.557Z,102.45
2024-03-24T01:16:46.709Z,103.33
2024-03-24T01:17:46.933Z,103.55
2024-03-24T01:18:47.091Z,102.32
2024-03-24T01:19:47.246Z,103.37
2024-03-24T01:20:47.422Z,104.64
2024-03-24T01:21:47.586Z,108.16
2024-03-24T01:22:47.798Z,110.11
2024-03-24T01:23:47.982Z,108.81
2024-03-24T01:24:48.148Z,109.57
2024-03-24T01:25:48.359Z,111.54
2024-03-24T01:26:48.573Z,111.69
2024-03-24T01:27:48.766Z,110.88
2024-03-24T01:28:48.961Z,115.12
2024-03-24T01:29:49.174Z,117.64
2024-03-24T01:30:49.423Z,118.76
2024-03-24T01:31:49.640Z,119.38
2024-03-24T01:32:49.845Z,121.93
2024-03-24T01:33:50.065Z,124.60
2024-03-24T01:34:50.290Z,121.27
2024-03-24T01:35:50.427Z,120.89
2024-03-24T01:36:50.635Z,117.47
2024-03-24T01:37:50.849Z,117.41
2024-03-24T01:38:51.014Z,119.42
2024-03-24T01:39:51.240Z,121.16
2024-03-24T01:40:51.453Z,122.71
2024-03-24T01:41:51.592Z,124.94
2024-03-24T01:42:51.808Z,127.04
2024-03-24T01:43:52.007Z,134.24
2024-03-24T01:44:52.235Z,131.92
2024-03-24T01:45:52.443Z,131.58
2024-03-24T01:46:52.666Z,130.60
2024-03-24T01:47:52.873Z,129.10
2024-03-24T01:48:53.056Z,125.21
2024-03-24T01:49:53.285Z,123.41
2024-03-24T01:50:53.469Z,123.90
2024-03-24T01:51:53.665Z,126.47
2024-03-24T01:52:53.925Z,122.93
2024-03-24T01:53:54.198Z,122.79
2024-03-24T01:54:54.370Z,122.90
2024-03-24T01:55:54.558Z,125.45
2024-03-24T01:56:54.730Z,124.33
2024-03-24T01:57:54.999Z,124.49
2024-03-24T01:58:55.099Z,120.89
2024-03-24T01:59:55.258Z,119.97
2024-03-24T02:00:55.476Z,118.88
2024-03-24T02:01:55.628Z,119.19
2024-03-24T02:02:55.810Z,116.23
2024-03-24T02:03:56.002Z,115.79
2024-03-24T02:04:56.179Z,114.29
2024-03-24T02:05:56.402Z,112.70
2024-03-24T02:06:56.669Z,110.25
2024-03-24T02:07:56.826Z,108.95
2024-03-24T02:08:57.023Z,107.63
2024-03-24T02:09:57.244Z,107.11
2024-03-24T02:10:57.421Z,106.41
2024-03-24T02:11:57.607Z,107.12
2024-03-24T02:12:57.809Z,104.73
2024-03-24T02:13:58.030Z,108.43
2024-03-24T02:14:58.273Z,108.46
2024-03-24T02:15:58.485Z,108.51
2024-03-24T02:16:58.699Z,107.68
2024-03-24T02:18:00.662Z,107.05
2024-03-24T02:18:59.087Z,106.35
2024-03-24T02:19:59.238Z,106.27
2024-03-24T02:20:59.441Z,104.26
2024-03-24T02:21:59.673Z,104.22
2024-03-24T02:22:59.941Z,106.74
2024-03-24T02:23:59.957Z,112.36
2024-03-24T02:25:00.214Z,115.68
2024-03-24T02:26:00.315Z,117.34
2024-03-24T02:27:00.529Z,119.39
2024-03-24T02:28:00.748Z,122.89
2024-03-24T02:29:00.896Z,126.48
2024-03-24T02:30:01.149Z,125.82
2024-03-24T02:31:01.318Z,125.40
2024-03-24T02:32:01.478Z,131.65
2024-03-24T02:33:01.723Z,133.65
2024-03-24T02:34:01.881Z,131.84
2024-03-24T02:35:02.060Z,130.12
2024-03-24T02:36:02.315Z,130.82
2024-03-24T02:37:02.424Z,130.12
2024-03-24T02:38:02.612Z,130.96
2024-03-24T02:39:02.761Z,132.46
2024-03-24T02:40:02.950Z,132.45
2024-03-24T02:41:03.132Z,134.43
2024-03-24T02:42:03.340Z,134.35
2024-03-24T02:43:03.496Z,136.11
2024-03-24T02:44:03.688Z,136.27
2024-03-24T02:45:03.871Z,133.01
2024-03-24T02:46:04.080Z,134.71
2024-03-24T02:47:04.310Z,134.54
2024-03-24T02:48:04.443Z,144.33
2024-03-24T02:49:04.619Z,144.41
2024-03-24T02:50:04.781Z,142.74
2024-03-24T02:51:05.011Z,142.71
2024-03-24T02:52:05.177Z,143.13
2024-03-24T02:53:05.331Z,142.10
2024-03-24T02:54:05.487Z,144.95
2024-03-24T02:55:05.673Z,146.95
2024-03-24T02:56:05.839Z,148.30
2024-03-24T02:57:06.023Z,151.46
2024-03-24T02:58:07.300Z,160.73
2024-03-24T02:59:06.368Z,169.82
2024-03-24T03:00:07.461Z,172.40
2024-03-24T03:01:06.746Z,169.16
2024-03-24T03:02:06.909Z,167.65
2024-03-24T03:03:07.119Z,166.30
2024-03-24T03:04:07.295Z,168.58
2024-03-24T03:05:07.504Z,167.56
2024-03-24T03:06:07.714Z,169.86
2024-03-24T03:07:08.019Z,168.14
2024-03-24T03:08:08.165Z,170.68
2024-03-24T03:09:08.340Z,175.02
2024-03-24T03:10:10.328Z,182.23
2024-03-24T03:11:08.698Z,184.05
2024-03-24T03:12:08.871Z,179.00
2024-03-24T03:13:09.044Z,178.20
2024-03-24T03:14:09.199Z,173.09
2024-03-24T03:15:09.341Z,169.37
2024-03-24T03:16:09.529Z,170.47
2024-03-24T03:17:09.651Z,176.35
2024-03-24T03:18:09.827Z,174.21
2024-03-24T03:19:10.004Z,175.94
2024-03-24T03:20:10.139Z,182.82
2024-03-24T03:21:10.322Z,178.13
2024-03-24T03:22:10.571Z,174.75
2024-03-24T03:23:10.737Z,173.36
2024-03-24T03:24:10.938Z,173.56
2024-03-24T03:25:11.136Z,170.37
2024-03-24T03:26:11.335Z,168.61
2024-03-24T03:27:11.500Z,167.90
2024-03-24T03:28:11.674Z,169.09
2024-03-24T03:29:11.854Z,168.36
2024-03-24T03:30:12.000Z,171.30
2024-03-24T03:31:12.193Z,176.76
2024-03-24T03:32:12.341Z,179.78
2024-03-24T03:33:12.588Z,176.76
2024-03-24T03:34:12.767Z,175.13
2024-03-24T03:35:12.928Z,173.48
2024-03-24T03:36:13.126Z,171.43
2024-03-24T03:37:13.385Z,170.35
2024-03-24T03:38:13.564Z,168.99
2024-03-24T03:39:13.774Z,169.39
2024-03-24T03:40:14.061Z,171.52
2024-03-24T03:41:14.250Z,172.29
2024-03-24T03:42:14.461Z,172.05
2024-03-24T03:43:14.639Z,171.95
2024-03-24T03:44:14.830Z,171.34
2024-03-24T03:45:15.039Z,170.55
2024-03-24T03:46:15.364Z,168.62
2024-03-24T03:47:15.441Z,166.86
2024-03-24T03:48:15.681Z,165.36
2024-03-24T03:49:15.891Z,161.07
2024-03-24T03:50:16.051Z,157.76
2024-03-24T03:51:16.270Z,158.29
2024-03-24T03:52:16.488Z,160.04
2024-03-24T03:53:16.689Z,161.38
2024-03-24T03:54:16.891Z,158.65
2024-03-24T03:55:17.103Z,154.49
2024-03-24T03:56:17.259Z,149.55
2024-03-24T03:57:17.458Z,145.32
2024-03-24T03:58:17.678Z,143.25
2024-03-24T03:59:17.871Z,143.62
2024-03-24T04:00:18.053Z,152.70
2024-03-24T04:01:18.258Z,163.99
2024-03-24T04:02:18.472Z,173.50
2024-03-24T04:03:18.724Z,176.66
2024-03-24T04:04:18.867Z,187.00
2024-03-24T04:05:19.106Z,194.50
2024-03-24T04:06:19.287Z,199.48
2024-03-24T04:07:19.511Z,200.00
2024-03-24T04:08:19.656Z,201.41
2024-03-24T04:09:19.853Z,200.15
2024-03-24T04:10:20.031Z,200.36
2024-03-24T04:11:20.216Z,200.00
2024-03-24T04:12:20.410Z,200.00
2024-03-24T04:13:20.593Z,199.83
2024-03-24T04:14:20.827Z,199.52
2024-03-24T04:15:21.033Z,201.55
2024-03-24T04:16:21.253Z,197.00
2024-03-24T04:17:21.476Z,195.26
2024-03-24T04:18:21.660Z,196.66
2024-03-24T04:19:21.858Z,199.65
2024-03-24T04:20:22.032Z,199.98
2024-03-24T04:21:22.203Z,199.03
2024-03-24T04:22:22.428Z,198.71
2024-03-24T04:23:22.605Z,199.16
2024-03-24T04:24:22.801Z,198.05
2024-03-24T04:25:23.018Z,196.11
2024-03-24T04:26:23.195Z,196.36
2024-03-24T04:27:23.404Z,197.91
2024-03-24T04:28:23.618Z,195.35
2024-03-24T04:29:23.832Z,194.25
2024-03-24T04:30:24.016Z,194.48
2024-03-24T04:31:24.258Z,193.02
2024-03-24T04:32:24.454Z,191.97
2024-03-24T04:33:24.648Z,190.20
2024-03-24T04:34:24.788Z,189.22
2024-03-24T04:35:24.984Z,188.19
2024-03-24T04:36:25.202Z,187.22
2024-03-24T04:37:25.428Z,186.46
2024-03-24T04:38:25.712Z,185.51
2024-03-24T04:39:25.836Z,183.80
2024-03-24T04:40:26.023Z,182.74
2024-03-24T04:41:26.202Z,179.43
2024-03-24T04:42:26.376Z,181.10
2024-03-24T04:43:26.530Z,180.38
2024-03-24T04:44:26.694Z,177.45
2024-03-24T04:45:26.886Z,178.06
2024-03-24T04:46:27.062Z,179.17
2024-03-24T04:47:27.315Z,178.75
2024-03-24T04:48:27.514Z,178.52
2024-03-24T04:49:27.586Z,177.00
2024-03-24T04:50:27.762Z,175.98
2024-03-24T04:51:27.947Z,173.27
2024-03-24T04:52:28.195Z,170.36
2024-03-24T04:53:28.366Z,168.25
2024-03-24T04:54:28.598Z,165.02
2024-03-24T04:55:28.863Z,163.58
2024-03-24T04:56:29.080Z,162.16
2024-03-24T04:57:29.323Z,161.59
2024-03-24T04:58:29.560Z,161.71
2024-03-24T04:59:29.761Z,163.10
2024-03-24T05:00:30.106Z,166.88
2024-03-24T05:01:30.172Z,172.03
2024-03-24T05:02:30.303Z,177.52
2024-03-24T05:03:30.504Z,179.85
2024-03-24T05:04:30.701Z,183.82
2024-03-24T05:05:30.882Z,185.35
2024-03-24T05:06:31.094Z,190.12
2024-03-24T05:07:31.307Z,188.87
2024-03-24T05:08:31.535Z,189.00
2024-03-24T05:09:31.720Z,188.19
2024-03-24T05:10:31.930Z,190.42
2024-03-24T05:11:32.188Z,191.19
2024-03-24T05:12:32.417Z,192.02
2024-03-24T05:13:32.622Z,194.71
2024-03-24T05:14:32.846Z,194.43
2024-03-24T05:15:33.056Z,195.00
2024-03-24T05:16:33.242Z,192.74
2024-03-24T05:17:40.795Z,50.00
2024-03-24T05:18:40.804Z,50.00
2024-03-24T05:19:40.807Z,50.00
2024-03-24T05:20:40.855Z,50.00
2024-03-24T05:21:40.854Z,50.00
2024-03-24T05:22:40.876Z,50.84
2024-03-24T05:23:40.935Z,49.28
2024-03-24T05:24:40.940Z,50.20
2024-03-24T05:25:40.944Z,50.59
2024-03-24T05:26:40.964Z,51.44
2024-03-24T05:27:40.982Z,53.95
2024-03-24T05:28:50.214Z,55.91
2024-03-24T05:29:42.052Z,56.24
2024-03-24T05:30:41.038Z,57.92
2024-03-24T05:31:41.089Z,63.00
2024-03-24T05:32:41.103Z,70.85
2024-03-24T05:33:41.118Z,82.12
2024-03-24T05:34:41.117Z,88.33
2024-03-24T05:35:41.139Z,92.03
2024-03-24T05:36:41.141Z,93.63
2024-03-24T05:37:41.197Z,85.32
2024-03-24T05:38:41.214Z,82.24
2024-03-24T05:39:41.226Z,83.34
2024-03-24T05:40:41.266Z,77.02
2024-03-24T05:41:41.283Z,77.12
2024-03-24T05:42:41.309Z,75.00
2024-03-24T05:43:41.337Z,74.47
2024-03-24T05:44:41.409Z,75.59
2024-03-24T05:45:41.506Z,74.43
2024-03-24T05:46:41.545Z,78.18
2024-03-24T05:47:41.620Z,74.03
2024-03-24T05:48:41.685Z,70.34
2024-03-24T05:49:41.738Z,64.63
2024-03-24T05:50:41.780Z,62.68
2024-03-24T05:51:41.856Z,58.41
2024-03-24T05:52:41.919Z,58.50
2024-03-24T05:53:41.987Z,52.34
2024-03-24T05:54:42.027Z,54.12
2024-03-24T05:55:42.074Z,53.62
2024-03-24T05:56:42.101Z,53.17
2024-03-24T05:57:42.140Z,50.00
2024-03-24T05:58:42.198Z,62.00
2024-03-24T05:59:42.229Z,58.44
2024-03-24T06:00:42.333Z,61.38
2024-03-24T06:01:44.701Z,54.33
2024-03-24T06:02:42.416Z,50.00
2024-03-24T06:03:42.447Z,50.00
2024-03-24T06:04:42.458Z,50.58
2024-03-24T06:05:42.457Z,50.00
2024-03-24T06:06:42.529Z,50.00
2024-03-24T06:07:42.505Z,50.00
2024-03-24T06:08:42.523Z,50.06
2024-03-24T06:09:42.548Z,51.50
2024-03-24T06:10:42.559Z,67.52
2024-03-24T06:11:42.561Z,73.85
2024-03-24T06:12:42.563Z,75.83
2024-03-24T06:13:42.572Z,74.76
2024-03-24T06:14:42.598Z,76.54
2024-03-24T06:15:42.616Z,81.74
2024-03-24T06:16:42.615Z,87.18
2024-03-24T06:17:42.648Z,93.75
2024-03-24T06:18:42.655Z,97.90
2024-03-24T06:19:42.666Z,97.35
2024-03-24T06:20:42.698Z,101.49
2024-03-24T06:21:42.720Z,103.78
2024-03-24T06:22:42.735Z,99.63
2024-03-24T06:23:42.733Z,95.56
2024-03-24T06:24:42.745Z,99.48
2024-03-24T06:25:42.755Z,97.50
2024-03-24T06:26:42.785Z,101.84
2024-03-24T06:27:42.761Z,106.38
2024-03-24T06:28:42.787Z,104.11
2024-03-24T06:29:42.795Z,104.97
2024-03-24T06:30:42.802Z,116.04
2024-03-24T06:31:44.637Z,119.04
2024-03-24T06:32:42.813Z,119.19
2024-03-24T06:33:42.814Z,119.80
2024-03-24T06:34:42.814Z,119.57
2024-03-24T06:35:42.836Z,120.08
2024-03-24T06:36:42.835Z,124.04
2024-03-24T06:37:42.848Z,128.88
2024-03-24T06:38:42.858Z,135.75
2024-03-24T06:39:42.864Z,144.57
2024-03-24T06:40:42.855Z,144.00
2024-03-24T06:41:42.873Z,142.00
2024-03-24T06:42:42.877Z,145.43
2024-03-24T06:43:42.887Z,144.14
2024-03-24T06:44:42.890Z,149.46
2024-03-24T06:45:42.891Z,151.00
2024-03-24T06:46:42.916Z,150.89
2024-03-24T06:47:42.932Z,150.88
2024-03-24T06:48:42.960Z,145.53
2024-03-24T06:49:42.959Z,145.92
2024-03-24T06:50:42.970Z,152.54
2024-03-24T06:51:42.994Z,153.97
2024-03-24T06:52:43.004Z,155.16
2024-03-24T06:53:43.005Z,160.98
2024-03-24T06:54:43.013Z,158.66
2024-03-24T06:55:43.009Z,160.67
2024-03-24T06:56:43.032Z,163.30
2024-03-24T06:57:43.029Z,158.12
2024-03-24T06:58:43.074Z,160.36
2024-03-24T06:59:43.091Z,163.71
2024-03-24T07:00:43.054Z,166.49
2024-03-24T07:01:43.109Z,168.27
2024-03-24T07:02:43.125Z,171.34
2024-03-24T07:03:43.157Z,177.16
2024-03-24T07:04:43.167Z,176.01
2024-03-24T07:05:43.163Z,174.72
2024-03-24T07:06:43.209Z,174.18
2024-03-24T07:07:43.189Z,175.43
2024-03-24T07:08:43.226Z,164.45
2024-03-24T07:09:43.220Z,160.60
2024-03-24T07:10:43.250Z,153.68
2024-03-24T07:11:43.214Z,147.92
2024-03-24T07:12:43.279Z,148.54
2024-03-24T07:13:43.287Z,140.84
2024-03-24T07:14:43.297Z,142.41
2024-03-24T07:15:43.304Z,136.93
2024-03-24T07:16:43.305Z,134.56
2024-03-24T07:17:43.366Z,130.34
2024-03-24T07:18:43.367Z,130.21
2024-03-24T07:19:43.398Z,130.17
2024-03-24T07:20:43.403Z,127.51
2024-03-24T07:21:43.402Z,127.86
2024-03-24T07:22:43.461Z,142.30
2024-03-24T07:23:43.433Z,134.58
2024-03-24T07:24:43.460Z,129.80
2024-03-24T07:25:43.467Z,130.01
2024-03-24T07:26:43.501Z,125.59
2024-03-24T07:27:43.499Z,118.35
2024-03-24T07:28:43.544Z,111.73
2024-03-24T07:29:43.571Z,108.43
2024-03-24T07:30:43.572Z,104.77
2024-03-24T07:31:43.621Z,109.54
2024-03-24T07:32:43.635Z,101.24
2024-03-24T07:33:43.684Z,93.53
2024-03-24T07:34:43.716Z,90.21
2024-03-24T07:35:43.726Z,88.44
2024-03-24T07:36:43.787Z,85.40
2024-03-24T07:37:43.835Z,93.43
2024-03-24T07:38:43.936Z,90.74
2024-03-24T07:39:43.977Z,89.66
2024-03-24T07:40:44.060Z,98.02
2024-03-24T07:41:46.167Z,108.80
2024-03-24T07:42:44.783Z,125.31
2024-03-24T07:43:44.123Z,122.36
2024-03-24T07:44:44.089Z,110.11
2024-03-24T07:45:44.120Z,108.62
2024-03-24T07:46:44.119Z,99.66
2024-03-24T07:47:44.153Z,92.94
2024-03-24T07:48:47.413Z,85.93
2024-03-24T07:49:45.123Z,85.99
2024-03-24T07:50:44.127Z,81.64
2024-03-24T07:51:44.149Z,75.61
2024-03-24T07:52:44.114Z,61.89
2024-03-24T07:53:44.167Z,55.47
2024-03-24T07:54:44.139Z,50.00
2024-03-24T07:55:44.148Z,39.00
2024-03-24T07:56:44.166Z,37.41
2024-03-24T07:57:44.177Z,35.79
2024-03-24T07:58:44.252Z,50.19
2024-03-24T07:59:44.328Z,50.61
2024-03-24T08:00:44.386Z,52.85
2024-03-24T08:01:44.473Z,54.21
2024-03-24T08:02:44.570Z,50.00
2024-03-24T08:03:44.618Z,50.00
2024-03-24T08:04:44.691Z,51.82
2024-03-24T08:05:44.780Z,50.00
2024-03-24T08:06:44.862Z,49.83
2024-03-24T08:07:44.947Z,48.49
2024-03-24T08:08:45.075Z,49.12
2024-03-24T08:09:45.120Z,50.00
2024-03-24T08:10:45.230Z,56.57
2024-03-24T08:11:45.278Z,50.00
2024-03-24T08:12:45.318Z,50.00
2024-03-24T08:13:45.393Z,50.37
2024-03-24T08:14:45.393Z,50.83
2024-03-24T08:15:45.479Z,50.19
2024-03-24T08:16:45.546Z,51.41
2024-03-24T08:17:45.618Z,55.60
2024-03-24T08:18:45.673Z,50.00
2024-03-24T08:19:45.732Z,51.82
2024-03-24T08:20:45.819Z,50.00
2024-03-24T08:21:45.880Z,54.83
2024-03-24T08:22:45.931Z,53.73
2024-03-24T08:23:45.963Z,58.89
2024-03-24T08:24:45.992Z,68.20
2024-03-24T08:25:46.015Z,74.66
2024-03-24T08:26:46.047Z,77.57
2024-03-24T08:27:46.075Z,67.75
2024-03-24T08:28:46.108Z,65.04
2024-03-24T08:29:46.203Z,61.16
2024-03-24T08:30:46.252Z,66.22
2024-03-24T08:31:46.322Z,68.72
2024-03-24T08:32:46.368Z,58.63
2024-03-24T08:33:46.437Z,56.95
2024-03-24T08:34:46.448Z,55.25
2024-03-24T08:35:46.499Z,50.00
2024-03-24T08:36:46.544Z,61.08
2024-03-24T08:37:46.547Z,63.31
2024-03-24T08:38:46.646Z,60.50
2024-03-24T08:39:46.668Z,63.33
2024-03-24T08:40:46.668Z,70.93
2024-03-24T08:41:46.689Z,56.65
2024-03-24T08:42:46.730Z,54.16
2024-03-24T08:43:46.775Z,65.72
2024-03-24T08:44:46.839Z,81.73
2024-03-24T08:45:46.908Z,81.21
2024-03-24T08:46:46.954Z,78.10
2024-03-24T08:47:47.005Z,106.12
2024-03-24T08:48:47.366Z,118.85
2024-03-24T08:49:47.066Z,114.64
2024-03-24T08:50:47.071Z,97.61
2024-03-24T08:51:47.153Z,85.83
2024-03-24T08:52:47.248Z,84.34
2024-03-24T08:53:47.560Z,84.20
2024-03-24T08:54:47.332Z,83.24
2024-03-24T08:55:47.375Z,83.70
2024-03-24T08:56:47.402Z,82.12
2024-03-24T08:57:47.392Z,78.69
2024-03-24T08:58:47.418Z,78.05
2024-03-24T08:59:47.464Z,77.00
2024-03-24T09:00:47.505Z,74.22
2024-03-24T09:01:47.535Z,70.67
2024-03-24T09:02:47.529Z,68.78
2024-03-24T09:03:47.535Z,76.43
2024-03-24T09:04:47.569Z,75.01
2024-03-24T09:05:47.739Z,83.28
2024-03-24T09:06:47.762Z,85.83
2024-03-24T09:07:47.814Z,100.87
2024-03-24T09:08:47.864Z,108.32
2024-03-24T09:09:47.940Z,105.47
2024-03-24T09:10:48.003Z,110.51
2024-03-24T09:11:48.076Z,112.79
2024-03-24T09:12:48.117Z,127.02
2024-03-24T09:13:48.211Z,124.98
2024-03-24T09:14:48.249Z,116.91
2024-03-24T09:15:48.256Z,113.53
2024-03-24T09:16:48.292Z,116.12
2024-03-24T09:17:48.288Z,111.15
2024-03-24T09:18:48.294Z,113.84
2024-03-24T09:19:48.361Z,121.55
2024-03-24T09:20:48.352Z,129.03
2024-03-24T09:21:48.362Z,143.39
2024-03-24T09:22:48.402Z,159.23
2024-03-24T09:23:48.449Z,179.48
2024-03-24T09:24:48.544Z,180.37
2024-03-24T09:25:48.641Z,187.92
2024-03-24T09:26:48.726Z,191.64
2024-03-24T09:27:48.789Z,184.15
2024-03-24T09:28:48.868Z,184.29
2024-03-24T09:29:48.935Z,182.17
2024-03-24T09:30:49.021Z,176.28
2024-03-24T09:31:49.105Z,178.51
2024-03-24T09:32:49.170Z,176.18
2024-03-24T09:33:49.213Z,173.80
2024-03-24T09:34:49.649Z,176.51
2024-03-24T09:35:49.280Z,176.71
2024-03-24T09:36:50.227Z,176.93
2024-03-24T09:37:49.388Z,175.45
2024-03-24T09:38:49.455Z,183.09
2024-03-24T09:39:49.513Z,184.45
2024-03-24T09:40:49.571Z,181.98
2024-03-24T09:41:49.599Z,182.21
2024-03-24T09:42:49.710Z,181.46
2024-03-24T09:43:49.762Z,183.46
2024-03-24T09:44:49.761Z,189.93
2024-03-24T09:45:49.774Z,195.13
2024-03-24T09:46:49.836Z,200.00
2024-03-24T09:47:49.929Z,196.64
2024-03-24T09:48:49.997Z,199.07
2024-03-24T09:49:50.047Z,199.24
2024-03-24T09:50:50.077Z,196.75
2024-03-24T09:51:50.129Z,200.00
2024-03-24T09:52:50.179Z,201.07
2024-03-24T09:53:50.238Z,196.36
2024-03-24T09:54:50.286Z,188.00
2024-03-24T09:55:50.292Z,184.29
2024-03-24T09:56:50.402Z,188.30
2024-03-24T09:57:57.052Z,197.84
2024-03-24T09:58:51.451Z,197.93
2024-03-24T09:59:50.482Z,196.95
2024-03-24T10:00:50.465Z,190.46
2024-03-24T10:01:50.485Z,183.16
2024-03-24T10:02:50.486Z,181.93
2024-03-24T10:03:50.518Z,180.97
2024-03-24T10:04:50.516Z,179.73
2024-03-24T10:05:50.516Z,186.98
2024-03-24T10:06:50.533Z,191.38
2024-03-24T10:07:50.596Z,188.84
2024-03-24T10:08:50.680Z,193.16
2024-03-24T10:09:50.611Z,196.82
2024-03-24T10:10:50.656Z,200.00
2024-03-24T10:11:50.668Z,195.03
2024-03-24T10:12:50.672Z,193.21
2024-03-24T10:13:50.683Z,191.32
2024-03-24T10:14:50.732Z,183.96
2024-03-24T10:15:50.754Z,190.02
2024-03-24T10:16:50.762Z,188.81
2024-03-24T10:17:50.829Z,187.40
2024-03-24T10:18:50.891Z,179.47
2024-03-24T10:19:50.978Z,184.56
2024-03-24T10:20:50.961Z,191.42
2024-03-24T10:21:51.039Z,200.00
2024-03-24T10:22:51.094Z,197.79
2024-03-24T10:23:51.128Z,199.77
2024-03-24T10:24:51.182Z,198.12
2024-03-24T10:25:51.231Z,192.75
2024-03-24T10:26:51.287Z,192.61
2024-03-24T10:27:51.319Z,197.31
2024-03-24T10:28:51.355Z,198.96
2024-03-24T10:29:51.380Z,192.13
2024-03-24T10:30:51.379Z,195.29
2024-03-24T10:31:53.245Z,192.18
2024-03-24T10:32:51.444Z,194.20
2024-03-24T10:33:51.450Z,193.04
2024-03-24T10:34:51.462Z,192.79
2024-03-24T10:35:51.480Z,198.53
2024-03-24T10:36:51.507Z,200.00
2024-03-24T10:37:51.570Z,199.52
2024-03-24T10:38:51.594Z,190.52
2024-03-24T10:39:51.692Z,189.90
2024-03-24T10:40:54.929Z,186.44
2024-03-24T10:41:51.705Z,182.69
2024-03-24T10:42:51.674Z,179.11
2024-03-24T10:43:51.696Z,183.26
2024-03-24T10:44:51.688Z,188.40
2024-03-24T10:45:51.685Z,193.87
2024-03-24T10:46:51.659Z,200.00
2024-03-24T10:47:51.633Z,192.44
2024-03-24T10:48:51.639Z,188.90
2024-03-24T10:49:51.624Z,184.16
2024-03-24T10:50:51.601Z,171.24
2024-03-24T10:51:51.626Z,169.82
2024-03-24T10:52:53.667Z,171.40
2024-03-24T10:53:51.574Z,171.51
2024-03-24T10:54:51.584Z,160.62
2024-03-24T10:55:51.595Z,157.05
2024-03-24T10:56:51.553Z,153.82
2024-03-24T10:57:51.555Z,154.43
2024-03-24T10:58:51.511Z,149.67
2024-03-24T10:59:51.531Z,144.13
2024-03-24T11:00:51.472Z,132.79
2024-03-24T11:01:51.481Z,127.08
2024-03-24T11:02:51.462Z,126.90
2024-03-24T11:03:51.442Z,121.25
2024-03-24T11:04:51.458Z,131.16
2024-03-24T11:05:51.410Z,124.66
2024-03-24T11:06:51.398Z,135.77
2024-03-24T11:07:51.379Z,123.88
2024-03-24T11:08:51.320Z,116.44
2024-03-24T11:09:51.334Z,123.76
2024-03-24T11:10:51.309Z,114.43
2024-03-24T11:11:51.294Z,126.65
2024-03-24T11:12:51.310Z,119.02
2024-03-24T11:13:51.278Z,116.52
2024-03-24T11:14:51.244Z,117.27
2024-03-24T11:15:51.218Z,114.19
2024-03-24T11:16:51.160Z,110.65
2024-03-24T11:17:51.170Z,109.60
2024-03-24T11:18:52.669Z,120.09
2024-03-24T11:19:51.096Z,126.74
2024-03-24T11:20:51.058Z,120.21
2024-03-24T11:21:51.003Z,113.36
2024-03-24T11:22:50.958Z,117.69
2024-03-24T11:23:50.917Z,115.54
2024-03-24T11:24:50.877Z,125.55
2024-03-24T11:25:50.826Z,138.14
2024-03-24T11:26:50.784Z,147.52
2024-03-24T11:27:50.688Z,139.25
2024-03-24T11:28:50.651Z,146.15
2024-03-24T11:29:52.568Z,141.60
2024-03-24T11:30:50.529Z,139.20
2024-03-24T11:31:50.464Z,141.73
2024-03-24T11:32:50.396Z,135.69
2024-03-24T11:33:50.333Z,133.60
2024-03-24T11:34:50.349Z,144.50
2024-03-24T11:35:50.232Z,147.00
2024-03-24T11:36:50.168Z,140.56
2024-03-24T11:37:50.077Z,129.44
2024-03-24T11:38:50.051Z,137.34
2024-03-24T11:39:49.992Z,138.78
2024-03-24T11:40:53.038Z,137.18
2024-03-24T11:41:49.869Z,137.22
2024-03-24T11:42:49.783Z,138.10
2024-03-24T11:43:49.721Z,135.86
2024-03-24T11:44:49.713Z,141.71
2024-03-24T11:45:49.633Z,145.60
2024-03-24T11:46:49.575Z,142.83
2024-03-24T11:47:49.493Z,124.29
2024-03-24T11:48:49.446Z,127.67
2024-03-24T11:49:49.484Z,120.24
2024-03-24T11:50:49.277Z,114.41
2024-03-24T11:51:49.227Z,124.74
2024-03-24T11:52:52.483Z,136.18
2024-03-24T11:53:49.075Z,136.38
2024-03-24T11:54:48.973Z,132.44
2024-03-24T11:55:49.012Z,130.41
2024-03-24T11:56:48.838Z,133.13
2024-03-24T11:57:48.791Z,115.92
2024-03-24T11:58:48.715Z,114.01
2024-03-24T11:59:48.656Z,132.30
2024-03-24T12:00:48.619Z,132.57
2024-03-24T12:01:48.513Z,146.41
2024-03-24T12:02:48.421Z,146.32
2024-03-24T12:03:48.363Z,124.48
2024-03-24T12:04:48.258Z,120.28
2024-03-24T12:05:48.194Z,118.60
2024-03-24T12:06:48.127Z,105.83
2024-03-24T12:07:48.045Z,110.39
2024-03-24T12:08:47.986Z,107.86
2024-03-24T12:09:47.889Z,108.88
2024-03-24T12:10:47.832Z,122.14
2024-03-24T12:11:47.734Z,124.60
2024-03-24T12:12:47.661Z,124.10
2024-03-24T12:13:47.596Z,123.11
2024-03-24T12:14:47.506Z,130.81
2024-03-24T12:15:47.440Z,128.45
2024-03-24T12:16:47.343Z,144.31
2024-03-24T12:17:47.253Z,147.19
2024-03-24T12:18:47.152Z,149.21
2024-03-24T12:19:47.091Z,144.31
2024-03-24T12:20:46.984Z,147.94
2024-03-24T12:21:46.905Z,157.01
2024-03-24T12:22:46.785Z,148.73
2024-03-24T12:23:46.708Z,135.27
2024-03-24T12:24:46.631Z,142.68
2024-03-24T12:25:46.509Z,144.84
2024-03-24T12:26:46.412Z,142.85
2024-03-24T12:27:46.319Z,139.40
2024-03-24T12:28:46.222Z,122.56
2024-03-24T12:29:46.116Z,132.91
2024-03-24T12:30:46.004Z,136.17
2024-03-24T12:31:45.901Z,135.86
2024-03-24T12:32:45.774Z,129.25
2024-03-24T12:33:45.672Z,126.55
2024-03-24T12:34:45.544Z,116.82
2024-03-24T12:35:45.443Z,87.71
2024-03-24T12:36:45.319Z,100.25